createdAt,value
2022-11-03T00:04:47.499Z,11.44
2022-11-03T00:10:19.219Z,11.32
2022-11-03T00:15:50.898Z,11.13
2022-11-03T00:21:23.128Z,11.23
2022-11-03T00:26:54.357Z,11.02
2022-11-03T00:32:26.101Z,11.01
2022-11-03T00:37:58.077Z,10.9
2022-11-03T00:43:29.509Z,10.89
2022-11-03T00:49:01.545Z,10.84
2022-11-03T00:54:32.965Z,10.89
2022-11-03T01:00:04.714Z,10.94
2022-11-03T01:05:41.102Z,10.9
2022-11-03T01:11:12.497Z,10.79
2022-11-03T01:16:44.203Z,10.89
2022-11-03T01:22:15.938Z,10.93
2022-11-03T01:27:47.775Z,10.96
2022-11-03T01:33:19.678Z,10.96
2022-11-03T01:38:51.072Z,10.91
2022-11-03T01:44:22.853Z,10.8
2022-11-03T01:49:54.787Z,10.76
2022-11-03T01:55:26.400Z,10.68
2022-11-03T02:00:58.307Z,10.57
2022-11-03T02:06:34.424Z,10.68
2022-11-03T02:12:13.126Z,10.75
2022-11-03T02:17:44.742Z,10.82
2022-11-03T02:23:16.410Z,10.85
2022-11-03T02:28:47.999Z,10.6
2022-11-03T02:34:19.725Z,10.48
2022-11-03T02:39:51.500Z,10.45
2022-11-03T02:45:23.170Z,10.47
2022-11-03T02:50:55.122Z,10.25
2022-11-03T02:56:26.574Z,10.25
2022-11-03T03:01:58.412Z,10.25
2022-11-03T03:07:34.433Z,10.12
2022-11-03T03:13:06.283Z,9.87
2022-11-03T03:18:37.871Z,9.87
2022-11-03T03:24:09.589Z,9.88
2022-11-03T03:29:41.302Z,9.87
2022-11-03T03:35:13.093Z,9.97
2022-11-03T03:40:44.766Z,9.89
2022-11-03T03:46:16.466Z,9.88
2022-11-03T03:51:48.186Z,9.75
2022-11-03T03:57:19.921Z,9.89
2022-11-03T04:02:51.658Z,9.84
2022-11-03T04:08:27.741Z,9.51
2022-11-03T04:13:59.462Z,9.53
2022-11-03T04:19:31.434Z,9.39
2022-11-03T04:25:03.126Z,9.56
2022-11-03T04:30:34.633Z,9.44
2022-11-03T04:36:06.355Z,9.64
2022-11-03T04:41:38.264Z,9.6
2022-11-03T04:47:10.008Z,9.7
2022-11-03T04:52:41.530Z,9.71
2022-11-03T04:58:13.244Z,9.76
2022-11-03T05:03:44.975Z,9.63
2022-11-03T05:09:21.065Z,9.51
2022-11-03T05:14:57.064Z,9.5
2022-11-03T05:20:24.485Z,9.47
2022-11-03T05:25:56.494Z,9.57
2022-11-03T05:31:27.961Z,9.33
2022-11-03T05:36:59.650Z,9.23
2022-11-03T05:42:31.350Z,9.12
2022-11-03T05:48:03.407Z,8.97
2022-11-03T05:53:35.112Z,9.01
2022-11-03T05:59:06.998Z,9.01
2022-11-03T06:04:38.334Z,8.9
2022-11-03T06:10:14.398Z,8.75
2022-11-03T06:15:46.172Z,8.78
2022-11-03T06:21:17.869Z,8.79
2022-11-03T06:26:50.065Z,8.82
2022-11-03T06:32:21.509Z,8.82
2022-11-03T06:37:53.174Z,8.97
2022-11-03T06:43:24.869Z,9.18
2022-11-03T06:48:56.634Z,9.35
2022-11-03T06:54:28.468Z,9.5
2022-11-03T07:00:13.197Z,9.57
2022-11-03T07:05:32.172Z,9.52
2022-11-03T07:11:10.109Z,9.57
2022-11-03T07:16:41.803Z,9.54
2022-11-03T07:22:13.368Z,9.66
2022-11-03T07:27:45.043Z,10.0
2022-11-03T07:33:16.758Z,10.04
2022-11-03T07:38:48.503Z,9.94
2022-11-03T07:44:20.239Z,9.95
2022-11-03T07:49:51.967Z,10.27
2022-11-03T07:55:23.663Z,10.4
2022-11-03T08:00:55.688Z,10.61
2022-11-03T08:06:27.153Z,10.64
2022-11-03T08:12:03.264Z,10.82
2022-11-03T08:17:34.979Z,10.84
2022-11-03T08:23:25.536Z,11.04
2022-11-03T08:28:38.410Z,10.86
2022-11-03T08:34:10.100Z,11.24
2022-11-03T08:39:41.894Z,11.31
2022-11-03T08:45:13.595Z,11.29
2022-11-03T08:50:48.218Z,11.38
2022-11-03T08:56:22.286Z,11.57
2022-11-03T09:01:51.764Z,11.61
2022-11-03T09:07:24.182Z,11.84
2022-11-03T09:12:59.626Z,11.98
2022-11-03T09:18:31.343Z,11.92
2022-11-03T09:24:03.096Z,12.07
2022-11-03T09:29:51.901Z,11.81
2022-11-03T09:35:07.377Z,12.21
2022-11-03T09:40:39.152Z,12.46
2022-11-03T09:46:10.789Z,12.73
2022-11-03T09:51:45.417Z,12.87
2022-11-03T09:57:17.152Z,13.11
2022-11-03T10:02:48.906Z,13.12
2022-11-03T10:08:22.312Z,13.31
2022-11-03T10:13:58.756Z,13.43
2022-11-03T10:19:30.514Z,13.66
2022-11-03T10:25:02.218Z,13.77
2022-11-03T10:30:40.530Z,13.87
2022-11-03T10:36:05.718Z,13.92
2022-11-03T10:41:37.432Z,14.03
2022-11-03T10:47:09.370Z,13.99
2022-11-03T10:52:41.114Z,13.94
2022-11-03T10:58:12.594Z,14.0
2022-11-03T11:03:44.361Z,14.11
2022-11-03T11:09:16.077Z,14.26
2022-11-03T11:14:52.269Z,14.34
2022-11-03T11:20:23.956Z,14.32
2022-11-03T11:25:55.665Z,14.34
2022-11-03T11:31:27.488Z,14.18
2022-11-03T11:36:59.095Z,13.98
2022-11-03T11:42:31.530Z,14.1
2022-11-03T11:48:02.572Z,14.32
2022-11-03T11:53:34.312Z,14.51
2022-11-03T11:59:06.007Z,14.45
2022-11-03T12:05:02.759Z,14.61
2022-11-03T12:10:34.461Z,14.67
2022-11-03T12:16:10.595Z,14.61
2022-11-03T12:21:42.285Z,14.56
2022-11-03T12:27:14.000Z,14.82
2022-11-03T12:32:45.713Z,14.79
2022-11-03T12:38:17.443Z,14.86
2022-11-03T12:43:49.289Z,14.9
2022-11-03T12:49:20.949Z,15.0
2022-11-03T12:54:52.666Z,14.74
2022-11-03T13:00:24.588Z,14.76
2022-11-03T13:05:56.123Z,14.81
2022-11-03T13:11:27.841Z,14.61
2022-11-03T13:17:05.986Z,14.7
2022-11-03T13:22:37.681Z,15.0
2022-11-03T13:28:09.430Z,14.82
2022-11-03T13:33:41.145Z,15.01
2022-11-03T13:39:12.913Z,14.97
2022-11-03T13:44:44.595Z,15.04
2022-11-03T13:50:17.026Z,15.23
2022-11-03T13:55:48.053Z,14.89
2022-11-03T14:01:20.011Z,14.83
2022-11-03T14:06:51.628Z,14.68
2022-11-03T14:12:23.575Z,14.66
2022-11-03T14:17:59.665Z,14.62
2022-11-03T14:23:31.139Z,14.74
2022-11-03T14:29:02.866Z,14.7
2022-11-03T14:34:34.640Z,14.74
2022-11-03T14:40:06.333Z,14.68
2022-11-03T14:45:38.471Z,14.68
2022-11-03T14:51:09.796Z,14.76
2022-11-03T14:56:41.493Z,14.66
2022-11-03T15:02:13.289Z,14.59
2022-11-03T15:07:45.174Z,14.64
2022-11-03T15:13:16.628Z,14.5
2022-11-03T15:18:52.746Z,14.59
2022-11-03T15:29:56.437Z,14.62
2022-11-03T15:35:27.975Z,14.63
2022-11-03T15:40:59.644Z,14.71
2022-11-03T15:46:31.358Z,14.62
2022-11-03T15:52:03.086Z,14.55
2022-11-03T15:57:34.827Z,14.58
2022-11-03T16:03:06.650Z,14.48
2022-11-03T16:08:38.522Z,14.43
2022-11-03T16:14:10.390Z,14.4
2022-11-03T16:19:48.127Z,14.41
2022-11-03T16:25:21.440Z,14.46
2022-11-03T16:30:54.453Z,14.52
2022-11-03T16:36:23.292Z,14.62
2022-11-03T16:41:55.039Z,14.58
2022-11-03T16:47:26.710Z,14.55
2022-11-03T16:52:58.656Z,14.34
2022-11-03T16:58:30.154Z,14.38
2022-11-03T17:04:02.347Z,14.42
2022-11-03T17:09:33.855Z,14.42
2022-11-03T17:15:05.512Z,14.51
2022-11-03T17:20:41.599Z,14.35
2022-11-03T17:26:14.099Z,14.56
2022-11-03T17:31:45.984Z,14.85
2022-11-03T17:37:17.484Z,15.05
2022-11-03T17:42:49.163Z,14.99
2022-11-03T17:48:20.883Z,14.95
2022-11-03T17:53:52.927Z,14.99
2022-11-03T17:59:24.754Z,15.0
2022-11-03T18:04:56.373Z,14.91
2022-11-03T18:10:27.876Z,14.76
2022-11-03T18:15:59.652Z,14.81
2022-11-03T18:21:35.745Z,14.9
2022-11-03T18:27:07.565Z,15.01
2022-11-03T18:32:39.210Z,14.83
2022-11-03T18:38:11.225Z,14.7
2022-11-03T18:43:42.972Z,14.9
2022-11-03T18:49:15.986Z,14.91
2022-11-03T18:54:47.686Z,14.82
2022-11-03T19:00:19.591Z,15.04
2022-11-03T19:05:51.151Z,14.65
2022-11-03T19:11:22.838Z,14.85
2022-11-03T19:22:32.637Z,14.71
2022-11-03T19:28:04.418Z,14.65
2022-11-03T19:33:36.356Z,14.43
2022-11-03T19:39:07.884Z,14.17
2022-11-03T19:44:39.650Z,14.4
2022-11-03T19:50:11.378Z,14.12
2022-11-03T19:55:43.090Z,14.21
2022-11-03T20:01:14.953Z,14.21
2022-11-03T20:06:46.566Z,14.34
2022-11-03T20:12:18.319Z,14.15
2022-11-03T20:17:49.993Z,14.4
2022-11-03T20:23:26.117Z,14.06
2022-11-03T20:28:57.823Z,13.98
2022-11-03T20:34:29.571Z,14.03
2022-11-03T20:40:01.913Z,13.72
2022-11-03T20:45:33.010Z,13.99
2022-11-03T20:51:04.716Z,13.96
2022-11-03T20:56:36.436Z,13.97
2022-11-03T21:02:08.255Z,13.7
2022-11-03T21:07:39.891Z,13.71
2022-11-03T21:13:11.903Z,13.65
2022-11-03T21:18:43.362Z,13.33
2022-11-03T21:24:19.497Z,13.28
2022-11-03T21:29:59.221Z,13.34
2022-11-03T21:35:23.190Z,13.09
2022-11-03T21:40:56.434Z,13.08
2022-11-03T21:46:26.564Z,13.12
2022-11-03T21:51:58.065Z,13.19
2022-11-03T21:57:30.007Z,12.84
2022-11-03T22:03:01.502Z,12.54
2022-11-03T22:08:33.243Z,12.67
2022-11-03T22:14:05.238Z,12.67
2022-11-03T22:19:36.721Z,12.82
2022-11-03T22:25:14.894Z,12.79
2022-11-03T22:30:46.761Z,12.6
2022-11-03T22:36:21.706Z,12.64
2022-11-03T22:41:50.242Z,12.54
2022-11-03T22:47:21.788Z,12.37
2022-11-03T22:52:53.582Z,12.23
2022-11-03T22:58:27.929Z,12.22
2022-11-03T23:03:57.385Z,12.22
2022-11-03T23:09:29.034Z,12.19
2022-11-03T23:15:00.658Z,12.29
2022-11-03T23:20:32.381Z,12.09
2022-11-03T23:26:08.396Z,12.02
2022-11-03T23:31:40.123Z,12.11
2022-11-03T23:37:11.843Z,12.19
2022-11-03T23:42:43.584Z,12.31
2022-11-03T23:48:15.274Z,12.58
2022-11-03T23:53:46.969Z,12.67
2022-11-03T23:59:18.734Z,12.5
